createdAt,value
2022-12-22T00:02:47.081Z,72.37
2022-12-22T00:05:34.579Z,72.86
2022-12-22T00:08:19.945Z,72.78
2022-12-22T00:11:05.760Z,72.65
2022-12-22T00:13:51.892Z,72.51
2022-12-22T00:16:37.702Z,73.06
2022-12-22T00:19:31.027Z,72.63
2022-12-22T00:22:20.467Z,72.65
2022-12-22T00:25:06.043Z,72.87
2022-12-22T00:27:51.463Z,72.24
2022-12-22T00:30:45.374Z,72.79
2022-12-22T00:33:33.503Z,72.72
2022-12-22T00:36:20.949Z,72.76
2022-12-22T00:39:06.318Z,72.97
2022-12-22T00:41:51.914Z,73.05
2022-12-22T00:44:37.425Z,72.99
2022-12-22T00:47:22.774Z,72.98
2022-12-22T00:50:08.742Z,73.25
2022-12-22T00:52:55.352Z,73.06
2022-12-22T00:55:47.663Z,72.85
2022-12-22T00:58:36.054Z,73.15
2022-12-22T01:01:21.547Z,72.85
2022-12-22T01:04:06.603Z,72.80
2022-12-22T01:06:54.390Z,73.18
2022-12-22T01:09:41.589Z,73.12
2022-12-22T01:12:32.566Z,72.93
2022-12-22T01:15:17.971Z,72.86
2022-12-22T01:18:03.479Z,72.91
2022-12-22T01:20:49.767Z,73.02
2022-12-22T01:23:35.180Z,73.07
2022-12-22T01:26:21.926Z,72.94
2022-12-22T01:29:07.350Z,73.34
2022-12-22T01:31:52.742Z,73.12
2022-12-22T01:34:38.154Z,72.95
2022-12-22T01:37:23.482Z,73.20
2022-12-22T01:40:08.996Z,73.35
2022-12-22T01:42:55.734Z,73.02
2022-12-22T01:45:42.467Z,72.81
2022-12-22T01:48:30.955Z,73.26
2022-12-22T01:51:18.405Z,72.80
2022-12-22T01:54:03.731Z,73.24
2022-12-22T01:56:50.675Z,73.23
2022-12-22T01:59:38.303Z,73.07
2022-12-22T02:02:24.920Z,72.75
2022-12-22T02:05:11.639Z,72.92
2022-12-22T02:08:13.938Z,72.95
2022-12-22T02:11:17.520Z,73.20
2022-12-22T02:14:15.632Z,73.17
2022-12-22T02:17:07.895Z,73.17
2022-12-22T02:20:13.561Z,73.02
2022-12-22T02:23:10.697Z,73.45
2022-12-22T02:26:03.105Z,73.16
2022-12-22T02:28:51.970Z,73.23
2022-12-22T02:31:37.391Z,73.08
2022-12-22T02:34:22.499Z,73.38
2022-12-22T02:37:14.991Z,73.53
2022-12-22T02:40:12.100Z,73.44
2022-12-22T02:43:03.413Z,73.38
2022-12-22T02:45:56.798Z,73.78
2022-12-22T02:48:49.848Z,73.68
2022-12-22T02:51:37.761Z,73.75
2022-12-22T02:54:25.623Z,73.78
2022-12-22T02:57:11.175Z,73.73
2022-12-22T02:59:56.512Z,74.07
2022-12-22T03:02:43.461Z,73.94
2022-12-22T03:05:29.023Z,74.12
2022-12-22T03:08:14.457Z,74.25
2022-12-22T03:10:59.833Z,74.18
2022-12-22T03:13:45.170Z,74.30
2022-12-22T03:16:30.720Z,74.13
2022-12-22T03:19:17.523Z,74.30
2022-12-22T03:22:02.995Z,74.64
2022-12-22T03:24:48.431Z,74.74
2022-12-22T03:27:16.092Z,74.56
2022-12-22T03:29:43.817Z,74.31
2022-12-22T03:32:11.506Z,74.07
2022-12-22T03:34:40.540Z,74.24
2022-12-22T03:37:08.264Z,74.54
2022-12-22T03:39:36.554Z,74.65
2022-12-22T03:42:21.807Z,74.71
2022-12-22T03:45:07.308Z,74.54
2022-12-22T03:47:35.024Z,74.58
2022-12-22T03:50:04.243Z,75.01
2022-12-22T03:52:32.009Z,74.69
2022-12-22T03:54:59.695Z,75.09
2022-12-22T03:57:27.382Z,74.85
2022-12-22T03:59:55.061Z,74.65
2022-12-22T04:02:22.936Z,74.77
2022-12-22T04:04:50.731Z,75.10
2022-12-22T04:07:19.827Z,75.15
2022-12-22T04:10:01.493Z,74.95
2022-12-22T04:12:46.733Z,75.20
2022-12-22T04:15:14.506Z,75.16
2022-12-22T04:17:42.221Z,74.87
2022-12-22T04:20:11.073Z,74.98
2022-12-22T04:22:40.165Z,74.85
2022-12-22T04:25:09.112Z,74.98
2022-12-22T04:27:36.802Z,75.24
2022-12-22T04:30:05.091Z,75.01
2022-12-22T04:32:33.034Z,75.39
2022-12-22T04:35:00.703Z,75.30
2022-12-22T04:37:28.425Z,75.08
2022-12-22T04:39:58.243Z,74.97
2022-12-22T04:42:26.180Z,75.46
2022-12-22T04:44:53.897Z,75.18
2022-12-22T04:47:21.635Z,75.12
2022-12-22T04:49:49.329Z,75.28
2022-12-22T04:52:17.019Z,75.38
2022-12-22T04:54:44.737Z,75.23
2022-12-22T04:57:13.832Z,74.94
2022-12-22T04:59:41.520Z,75.20
2022-12-22T05:02:09.321Z,75.20
2022-12-22T05:04:37.188Z,74.98
2022-12-22T05:07:05.257Z,75.20
2022-12-22T05:09:32.908Z,75.35
2022-12-22T05:12:00.825Z,75.15
2022-12-22T05:14:29.872Z,74.95
2022-12-22T05:16:57.714Z,74.85
2022-12-22T05:19:30.549Z,75.22
2022-12-22T05:21:58.666Z,75.19
2022-12-22T05:24:26.357Z,74.99
2022-12-22T05:26:54.161Z,74.94
2022-12-22T05:29:21.891Z,74.85
2022-12-22T05:31:50.990Z,75.01
2022-12-22T05:34:18.729Z,75.06
2022-12-22T05:36:46.446Z,74.98
2022-12-22T05:39:14.200Z,75.37
2022-12-22T05:41:41.902Z,75.46
2022-12-22T05:44:09.701Z,75.77
2022-12-22T05:46:37.463Z,75.43
2022-12-22T05:49:06.612Z,75.62
2022-12-22T05:51:34.325Z,76.20
2022-12-22T05:54:02.070Z,75.88
2022-12-22T05:56:29.856Z,75.50
2022-12-22T05:58:57.633Z,75.87
2022-12-22T06:01:25.406Z,76.29
2022-12-22T06:03:59.501Z,76.78
2022-12-22T06:06:29.477Z,76.12
2022-12-22T06:08:57.240Z,76.72
2022-12-22T06:11:24.926Z,76.71
2022-12-22T06:13:52.634Z,76.26
2022-12-22T06:16:20.518Z,76.75
2022-12-22T06:18:48.363Z,77.00
2022-12-22T06:21:16.063Z,76.93
2022-12-22T06:23:45.258Z,76.94
2022-12-22T06:26:13.109Z,76.50
2022-12-22T06:28:40.834Z,77.36
2022-12-22T06:31:08.594Z,77.28
2022-12-22T06:33:36.373Z,77.28
2022-12-22T06:36:06.448Z,77.37
2022-12-22T06:38:34.274Z,76.95
2022-12-22T06:41:03.911Z,77.45
2022-12-22T06:43:30.928Z,77.95
2022-12-22T06:45:58.717Z,77.61
2022-12-22T06:48:26.454Z,77.67
2022-12-22T06:50:58.556Z,78.66
2022-12-22T06:53:26.351Z,78.40
2022-12-22T06:55:54.076Z,78.36
2022-12-22T06:58:23.173Z,78.62
2022-12-22T07:00:51.326Z,78.80
2022-12-22T07:03:19.275Z,78.68
2022-12-22T07:05:47.163Z,79.20
2022-12-22T07:08:14.883Z,79.13
2022-12-22T07:11:00.928Z,78.89
2022-12-22T07:13:32.728Z,79.22
2022-12-22T07:16:01.835Z,79.08
2022-12-22T07:18:31.502Z,79.24
2022-12-22T07:21:00.398Z,79.12
2022-12-22T07:23:28.208Z,79.21
2022-12-22T07:25:55.948Z,78.91
2022-12-22T07:28:23.738Z,79.48
2022-12-22T07:30:53.778Z,79.32
2022-12-22T07:33:21.707Z,79.12
2022-12-22T07:35:49.397Z,78.84
2022-12-22T07:38:17.089Z,78.97
2022-12-22T07:40:49.285Z,78.66
2022-12-22T07:43:18.402Z,78.82
2022-12-22T07:45:46.256Z,78.54
2022-12-22T07:48:29.475Z,78.47
2022-12-22T07:51:04.265Z,78.04
2022-12-22T07:53:32.139Z,77.54
2022-12-22T07:56:03.823Z,77.99
2022-12-22T07:58:31.780Z,78.21
2022-12-22T08:01:00.564Z,78.15
2022-12-22T08:03:29.713Z,78.14
2022-12-22T08:05:57.436Z,78.29
2022-12-22T08:08:25.229Z,78.27
2022-12-22T08:10:52.973Z,78.20
2022-12-22T08:13:21.295Z,78.25
2022-12-22T08:15:49.127Z,78.29
2022-12-22T08:18:16.831Z,78.10
2022-12-22T08:20:51.637Z,78.01
2022-12-22T08:23:19.424Z,78.07
2022-12-22T08:25:50.033Z,78.42
2022-12-22T08:28:18.404Z,77.94
2022-12-22T08:30:47.089Z,77.84
2022-12-22T08:33:14.993Z,77.53
2022-12-22T08:35:43.499Z,77.34
2022-12-22T08:38:13.919Z,77.31
2022-12-22T08:40:44.521Z,77.28
2022-12-22T08:43:13.389Z,77.25
2022-12-22T08:45:42.886Z,77.02
2022-12-22T08:48:11.487Z,77.10
2022-12-22T08:50:39.258Z,76.88
2022-12-22T08:53:18.730Z,76.22
2022-12-22T08:55:57.838Z,75.19
2022-12-22T08:58:25.559Z,74.73
2022-12-22T09:00:53.396Z,74.04
2022-12-22T09:03:21.146Z,73.52
2022-12-22T09:05:48.851Z,72.97
2022-12-22T09:08:16.526Z,71.99
2022-12-22T09:10:44.825Z,71.62
2022-12-22T09:13:13.915Z,71.39
2022-12-22T09:15:41.695Z,71.33
2022-12-22T09:18:09.468Z,71.24
2022-12-22T09:20:37.251Z,71.76
2022-12-22T09:23:04.943Z,72.06
2022-12-22T09:25:35.258Z,72.42
2022-12-22T09:28:02.974Z,72.65
2022-12-22T09:30:32.025Z,73.04
2022-12-22T09:32:59.759Z,73.34
2022-12-22T09:35:27.457Z,73.36
2022-12-22T09:37:55.147Z,73.68
2022-12-22T09:40:24.715Z,73.79
2022-12-22T09:42:52.474Z,73.97
2022-12-22T09:45:21.023Z,74.15
2022-12-22T09:47:54.389Z,74.44
2022-12-22T09:50:24.500Z,74.56
2022-12-22T09:52:55.336Z,74.59
2022-12-22T09:55:40.429Z,74.74
2022-12-22T09:58:25.705Z,74.81
2022-12-22T10:01:01.737Z,74.67
2022-12-22T10:03:38.473Z,74.84
2022-12-22T10:06:12.233Z,74.83
2022-12-22T10:08:41.737Z,75.11
2022-12-22T10:11:14.813Z,75.07
2022-12-22T10:13:42.928Z,75.31
2022-12-22T10:16:19.310Z,75.34
2022-12-22T10:18:59.695Z,75.13
2022-12-22T10:21:29.820Z,75.21
2022-12-22T10:23:57.647Z,75.29
2022-12-22T10:26:30.250Z,74.91
2022-12-22T10:29:02.353Z,74.87
2022-12-22T10:31:32.126Z,74.78
2022-12-22T10:34:13.930Z,75.12
2022-12-22T10:36:43.867Z,75.08
2022-12-22T10:39:12.248Z,75.11
2022-12-22T10:41:43.355Z,74.73
2022-12-22T10:44:19.836Z,75.16
2022-12-22T10:46:50.115Z,74.92
2022-12-22T10:49:22.782Z,74.86
2022-12-22T10:51:53.441Z,75.07
2022-12-22T10:54:44.669Z,74.89
2022-12-22T10:57:30.782Z,75.16
2022-12-22T11:00:00.147Z,74.88
2022-12-22T11:02:31.788Z,74.87
2022-12-22T11:05:06.876Z,74.73
2022-12-22T11:07:37.589Z,74.60
2022-12-22T11:10:18.452Z,74.70
2022-12-22T11:13:15.360Z,74.64
2022-12-22T11:15:49.564Z,74.62
2022-12-22T11:18:32.947Z,74.54
2022-12-22T11:21:09.534Z,74.39
2022-12-22T11:23:40.387Z,74.35
2022-12-22T11:26:17.190Z,74.47
2022-12-22T11:28:51.514Z,74.56
2022-12-22T11:31:32.221Z,74.25
2022-12-22T11:34:14.473Z,74.67
2022-12-22T11:37:02.830Z,74.54
2022-12-22T11:39:41.387Z,74.49
2022-12-22T11:42:25.585Z,74.49
2022-12-22T11:45:03.971Z,74.41
2022-12-22T11:47:40.167Z,74.42
2022-12-22T11:50:58.326Z,74.21
2022-12-22T11:53:38.637Z,75.17
2022-12-22T11:56:21.048Z,74.67
2022-12-22T11:59:04.843Z,74.54
2022-12-22T12:01:45.854Z,74.40
2022-12-22T12:04:41.583Z,74.51
2022-12-22T12:07:28.354Z,74.65
2022-12-22T12:10:07.986Z,74.68
2022-12-22T12:12:46.945Z,74.43
2022-12-22T12:15:27.634Z,74.31
2022-12-22T12:18:33.182Z,73.75
2022-12-22T12:21:18.351Z,73.93
2022-12-22T12:24:14.899Z,73.82
2022-12-22T12:26:54.132Z,74.08
2022-12-22T12:29:25.405Z,73.60
2022-12-22T12:31:59.526Z,73.87
2022-12-22T12:34:31.020Z,74.00
2022-12-22T12:37:04.496Z,73.86
2022-12-22T12:39:40.945Z,73.80
2022-12-22T12:42:30.883Z,73.81
2022-12-22T12:44:59.552Z,73.91
2022-12-22T12:47:31.089Z,73.62
2022-12-22T12:50:27.157Z,73.81
2022-12-22T12:53:07.419Z,73.94
2022-12-22T12:55:52.939Z,73.86
2022-12-22T12:58:50.436Z,74.03
2022-12-22T13:01:55.997Z,73.88
2022-12-22T13:05:11.667Z,73.99
2022-12-22T13:08:16.852Z,74.19
2022-12-22T13:10:50.553Z,74.05
2022-12-22T13:13:47.458Z,74.21
2022-12-22T13:16:35.504Z,73.93
2022-12-22T13:19:21.204Z,73.95
2022-12-22T13:21:54.424Z,74.07
2022-12-22T13:24:27.515Z,73.88
2022-12-22T13:27:01.564Z,74.24
2022-12-22T13:29:36.222Z,74.02
2022-12-22T13:32:20.338Z,74.05
2022-12-22T13:37:43.957Z,73.95
2022-12-22T13:40:15.828Z,73.92
2022-12-22T13:42:46.956Z,73.64
2022-12-22T13:45:21.367Z,73.80
2022-12-22T13:47:51.004Z,73.64
2022-12-22T13:50:21.804Z,73.47
2022-12-22T13:52:50.968Z,73.62
2022-12-22T13:55:22.970Z,73.96
2022-12-22T13:57:58.024Z,73.88
2022-12-22T14:00:29.675Z,73.88
2022-12-22T14:02:59.144Z,73.86
2022-12-22T14:05:32.385Z,73.80
2022-12-22T14:08:05.503Z,73.83
2022-12-22T14:10:36.498Z,73.86
2022-12-22T14:13:08.767Z,73.15
2022-12-22T14:15:36.562Z,72.77
2022-12-22T14:18:05.893Z,72.13
2022-12-22T14:20:36.568Z,71.63
2022-12-22T14:23:09.077Z,70.94
2022-12-22T14:25:39.107Z,70.36
2022-12-22T14:28:12.521Z,69.84
2022-12-22T14:30:44.390Z,69.26
2022-12-22T14:33:18.811Z,69.05
2022-12-22T14:35:46.595Z,69.42
2022-12-22T14:38:27.632Z,69.70
2022-12-22T14:40:57.734Z,70.20
2022-12-22T14:43:32.080Z,70.55
2022-12-22T14:46:07.716Z,70.85
2022-12-22T14:48:41.128Z,71.31
2022-12-22T14:51:08.963Z,71.27
2022-12-22T14:53:44.648Z,71.65
2022-12-22T14:56:14.155Z,71.77
2022-12-22T14:58:44.439Z,71.96
2022-12-22T15:01:19.859Z,72.14
2022-12-22T15:04:00.509Z,72.20
2022-12-22T15:06:35.930Z,72.29
2022-12-22T15:10:12.378Z,72.29
2022-12-22T15:12:18.057Z,72.24
2022-12-22T15:14:48.833Z,72.56
2022-12-22T15:17:25.515Z,72.68
2022-12-22T15:19:58.496Z,72.66
2022-12-22T15:22:26.223Z,72.77
2022-12-22T15:24:53.936Z,72.61
2022-12-22T15:27:21.717Z,73.03
2022-12-22T15:29:49.449Z,72.86
2022-12-22T15:32:17.192Z,72.81
2022-12-22T15:34:45.055Z,73.36
2022-12-22T15:37:14.311Z,72.86
2022-12-22T15:39:42.147Z,72.89
2022-12-22T15:42:09.867Z,72.73
2022-12-22T15:44:39.223Z,71.99
2022-12-22T15:47:09.386Z,71.43
2022-12-22T15:49:37.256Z,71.03
2022-12-22T15:52:06.622Z,70.75
2022-12-22T15:54:37.285Z,70.39
2022-12-22T15:57:05.323Z,69.67
2022-12-22T15:59:33.104Z,69.04
2022-12-22T16:02:02.064Z,68.60
2022-12-22T16:04:30.471Z,68.72
2022-12-22T16:07:00.154Z,68.59
2022-12-22T16:09:32.628Z,68.87
2022-12-22T16:12:01.763Z,69.64
2022-12-22T16:14:35.263Z,70.11
2022-12-22T16:17:06.944Z,70.75
2022-12-22T16:19:34.751Z,71.74
2022-12-22T16:22:02.543Z,71.52
2022-12-22T16:24:34.887Z,72.10
2022-12-22T16:27:04.484Z,71.83
2022-12-22T16:29:32.331Z,72.15
2022-12-22T16:32:17.849Z,72.18
2022-12-22T16:34:46.238Z,72.88
2022-12-22T16:37:13.971Z,73.11
2022-12-22T16:39:41.707Z,72.66
2022-12-22T16:44:59.566Z,73.31
2022-12-22T16:47:29.470Z,72.90
2022-12-22T16:49:57.159Z,73.24
2022-12-22T16:52:30.789Z,73.34
2022-12-22T16:54:58.722Z,73.57
2022-12-22T16:57:27.767Z,73.71
2022-12-22T16:59:55.504Z,73.67
2022-12-22T17:02:27.606Z,73.64
2022-12-22T17:04:58.217Z,73.73
2022-12-22T17:07:25.940Z,74.08
2022-12-22T17:09:57.671Z,73.97
2022-12-22T17:12:29.263Z,74.10
2022-12-22T17:14:58.356Z,74.19
2022-12-22T17:17:32.966Z,74.40
2022-12-22T17:20:03.416Z,74.00
2022-12-22T17:22:34.212Z,73.17
2022-12-22T17:25:04.903Z,72.49
2022-12-22T17:27:35.595Z,72.09
2022-12-22T17:30:04.774Z,71.02
2022-12-22T17:32:32.582Z,70.63
2022-12-22T17:35:00.476Z,70.37
2022-12-22T17:37:28.191Z,69.91
2022-12-22T17:40:01.163Z,70.34
2022-12-22T17:42:31.340Z,72.08
2022-12-22T17:45:00.517Z,73.02
2022-12-22T17:47:33.324Z,73.40
2022-12-22T17:50:03.862Z,74.12
2022-12-22T17:52:31.717Z,74.32
2022-12-22T17:54:59.758Z,74.51
2022-12-22T17:57:31.095Z,74.60
2022-12-22T18:00:00.631Z,74.82
2022-12-22T18:02:29.791Z,74.98
2022-12-22T18:04:57.631Z,75.22
2022-12-22T18:07:26.115Z,75.42
2022-12-22T18:09:58.635Z,75.48
2022-12-22T18:12:26.622Z,75.57
2022-12-22T18:14:54.358Z,75.65
2022-12-22T18:17:28.614Z,75.58
2022-12-22T18:20:01.033Z,75.84
2022-12-22T18:22:30.591Z,75.70
2022-12-22T18:24:58.855Z,75.92
2022-12-22T18:27:26.615Z,75.39
2022-12-22T18:29:54.387Z,74.58
2022-12-22T18:32:27.830Z,73.87
2022-12-22T18:34:55.833Z,73.54
2022-12-22T18:37:23.597Z,72.91
2022-12-22T18:39:51.409Z,72.52
2022-12-22T18:42:21.828Z,71.71
2022-12-22T18:44:51.198Z,71.10
2022-12-22T18:47:19.299Z,71.07
2022-12-22T18:49:48.536Z,71.19
2022-12-22T18:52:19.283Z,71.24
2022-12-22T18:54:47.400Z,71.73
2022-12-22T18:57:17.018Z,72.19
2022-12-22T18:59:45.542Z,72.72
2022-12-22T19:02:21.911Z,72.97
2022-12-22T19:04:51.917Z,73.40
2022-12-22T19:07:22.283Z,73.99
2022-12-22T19:09:50.576Z,73.95
2022-12-22T19:12:20.707Z,74.22
2022-12-22T19:14:52.747Z,74.47
2022-12-22T19:17:23.317Z,74.76
2022-12-22T19:19:52.378Z,74.78
2022-12-22T19:22:20.660Z,75.05
2022-12-22T19:24:49.039Z,75.05
2022-12-22T19:27:18.355Z,75.37
2022-12-22T19:29:46.631Z,75.60
2022-12-22T19:32:24.078Z,75.55
2022-12-22T19:34:53.277Z,76.14
2022-12-22T19:37:21.064Z,76.34
2022-12-22T19:39:49.020Z,76.14
2022-12-22T19:42:20.565Z,76.23
2022-12-22T19:44:48.691Z,76.20
2022-12-22T19:47:19.151Z,76.25
2022-12-22T19:49:48.227Z,76.14
2022-12-22T19:52:17.513Z,76.40
2022-12-22T19:54:45.274Z,76.12
2022-12-22T19:57:19.217Z,76.32
2022-12-22T19:59:49.726Z,76.72
2022-12-22T20:02:28.454Z,76.39
2022-12-22T20:04:57.628Z,76.48
2022-12-22T20:07:29.435Z,76.51
2022-12-22T20:09:57.124Z,76.42
2022-12-22T20:12:29.716Z,76.49
2022-12-22T20:14:57.745Z,76.49
2022-12-22T20:17:25.572Z,76.05
2022-12-22T20:19:53.254Z,75.97
2022-12-22T20:22:23.920Z,75.83
2022-12-22T20:24:54.543Z,75.83
2022-12-22T20:27:24.348Z,75.98
2022-12-22T20:29:52.103Z,75.98
2022-12-22T20:32:25.582Z,76.09
2022-12-22T20:34:55.526Z,76.44
2022-12-22T20:37:23.328Z,76.06
2022-12-22T20:39:51.016Z,76.33
2022-12-22T20:42:22.330Z,76.03
2022-12-22T20:45:03.406Z,75.97
2022-12-22T20:47:32.395Z,76.06
2022-12-22T20:50:00.639Z,76.04
2022-12-22T20:52:28.652Z,76.10
2022-12-22T20:54:56.339Z,75.97
2022-12-22T20:57:26.219Z,75.97
2022-12-22T20:59:56.354Z,75.93
2022-12-22T21:02:28.339Z,75.93
2022-12-22T21:04:56.404Z,75.49
2022-12-22T21:07:24.343Z,75.97
2022-12-22T21:09:52.047Z,76.05
2022-12-22T21:12:19.786Z,75.94
2022-12-22T21:14:49.461Z,76.16
2022-12-22T21:17:17.991Z,76.06
2022-12-22T21:19:46.338Z,76.14
2022-12-22T21:22:14.241Z,76.16
2022-12-22T21:24:43.824Z,76.24
2022-12-22T21:27:19.029Z,76.40
2022-12-22T21:29:48.614Z,76.20
2022-12-22T21:32:16.926Z,76.26
2022-12-22T21:34:44.597Z,76.55
2022-12-22T21:37:17.302Z,76.60
2022-12-22T21:39:45.575Z,76.64
2022-12-22T21:42:15.995Z,76.62
2022-12-22T21:44:44.653Z,76.54
2022-12-22T21:47:17.556Z,76.51
2022-12-22T21:49:45.343Z,76.46
2022-12-22T21:52:13.076Z,76.57
2022-12-22T21:54:40.809Z,76.59
2022-12-22T21:57:14.773Z,76.35
2022-12-22T21:59:42.549Z,76.39
2022-12-22T22:02:16.886Z,76.38
2022-12-22T22:04:50.175Z,76.42
2022-12-22T22:07:22.126Z,76.30
2022-12-22T22:09:49.835Z,76.42
2022-12-22T22:12:37.025Z,76.39
2022-12-22T22:15:05.776Z,76.23
2022-12-22T22:17:35.053Z,76.43
2022-12-22T22:20:02.916Z,76.33
2022-12-22T22:22:30.627Z,76.39
2022-12-22T22:24:58.348Z,76.54
2022-12-22T22:27:26.052Z,76.40
2022-12-22T22:29:53.779Z,76.38
2022-12-22T22:32:21.523Z,76.47
2022-12-22T22:34:50.628Z,76.36
2022-12-22T22:37:18.287Z,75.93
2022-12-22T22:39:46.010Z,76.37
2022-12-22T22:42:13.817Z,76.59
2022-12-22T22:44:41.544Z,76.51
2022-12-22T22:47:09.343Z,76.60
2022-12-22T22:49:37.061Z,76.42
2022-12-22T22:52:06.394Z,76.46
2022-12-22T22:54:34.115Z,76.67
2022-12-22T22:57:01.913Z,76.28
2022-12-22T22:59:29.632Z,76.52
2022-12-22T23:01:57.392Z,76.72
2022-12-22T23:04:25.225Z,76.73
2022-12-22T23:06:53.065Z,76.58
2022-12-22T23:09:22.233Z,76.76
2022-12-22T23:11:52.503Z,76.59
2022-12-22T23:14:20.609Z,76.75
2022-12-22T23:16:48.815Z,76.64
2022-12-22T23:19:17.080Z,76.58
2022-12-22T23:21:45.083Z,76.88
2022-12-22T23:24:13.339Z,76.85
2022-12-22T23:26:42.448Z,76.77
2022-12-22T23:29:10.205Z,76.91
2022-12-22T23:31:38.050Z,76.84
2022-12-22T23:34:05.799Z,76.52
2022-12-22T23:36:34.035Z,76.60
2022-12-22T23:39:01.733Z,76.99
2022-12-22T23:41:29.653Z,76.91
2022-12-22T23:43:58.745Z,76.92
2022-12-22T23:46:26.523Z,77.09
2022-12-22T23:48:56.825Z,76.87
2022-12-22T23:51:26.663Z,76.89
2022-12-22T23:53:54.771Z,76.90
2022-12-22T23:56:22.473Z,76.80
2022-12-22T23:58:54.599Z,77.02
